Time;durP1;ratioP1;P1;durP2;ratioP2;P2;SDS_P1;SDS_P2;PMS_P1;PMS_P2;Temp;Humidity;BMP_temperature;BMP_pressure;BME280_temperature;BME280_humidity;BME280_pressure;Samples;Min_cycle;Max_cycle;Signal;HPM_P1;HPM_P2
2021/08/27 00:00:48;;;;;;;4.60;2.30;;;;;;;;;;5031581;28;20426;-44
2021/08/27 00:03:14;;;;;;;4.87;2.20;;;;;;;;;;5031369;28;20382;-45
2021/08/27 00:05:40;;;;;;;5.50;2.90;;;;;;;;;;5031999;28;20739;-45
2021/08/27 00:08:06;;;;;;;3.00;2.20;;;;;;;;;;5031659;28;20413;-45
2021/08/27 00:10:32;;;;;;;6.13;2.23;;;;;;;;;;5031437;28;20507;-46
2021/08/27 00:12:58;;;;;;;5.30;2.07;;;;;;;;;;5031145;28;20436;-44
2021/08/27 00:15:24;;;;;;;4.63;2.70;;;;;;;;;;5031701;28;20485;-45
2021/08/27 00:17:50;;;;;;;7.00;2.27;;;;;;;;;;5031619;28;20478;-45
2021/08/27 00:20:17;;;;;;;3.53;2.10;;;;;;;;;;5031435;28;20516;-44
2021/08/27 00:22:42;;;;;;;2.93;2.20;;;;;;;;;;5031287;28;20912;-44
2021/08/27 00:25:09;;;;;;;10.03;3.93;;;;;;;;;;5031493;28;20402;-45
2021/08/27 00:27:35;;;;;;;4.80;2.80;;;;;;;;;;5031596;28;20409;-45
2021/08/27 00:30:01;;;;;;;4.87;2.27;;;;;;;;;;5031326;28;20464;-44
2021/08/27 00:32:28;;;;;;;5.63;2.80;;;;;;;;;;5031364;28;20963;-44
2021/08/27 00:34:54;;;;;;;3.03;2.60;;;;;;;;;;5031010;28;20428;-46
2021/08/27 00:37:20;;;;;;;5.30;2.50;;;;;;;;;;5031587;28;20902;-44
2021/08/27 00:39:46;;;;;;;5.90;2.80;;;;;;;;;;5031330;28;20428;-44
2021/08/27 00:42:12;;;;;;;3.97;2.70;;;;;;;;;;5031403;28;20385;-45
2021/08/27 00:44:38;;;;;;;5.07;3.00;;;;;;;;;;5030955;28;20495;-47
2021/08/27 00:47:04;;;;;;;6.90;3.63;;;;;;;;;;5031261;28;20395;-46
2021/08/27 00:49:31;;;;;;;12.90;3.20;;;;;;;;;;5031094;28;20464;-45
2021/08/27 00:51:57;;;;;;;9.03;3.03;;;;;;;;;;5031354;28;20500;-44
2021/08/27 00:54:23;;;;;;;8.10;3.07;;;;;;;;;;5030858;28;20451;-45
2021/08/27 00:56:50;;;;;;;7.70;2.93;;;;;;;;;;5031364;28;20417;-45
2021/08/27 00:59:16;;;;;;;4.37;2.23;;;;;;;;;;5031070;28;20426;-45
2021/08/27 01:01:42;;;;;;;3.67;2.50;;;;;;;;;;5034093;28;20402;-45
2021/08/27 01:04:08;;;;;;;5.40;2.80;;;;;;;;;;5034059;28;20461;-46
2021/08/27 01:06:43;;;;;;;7.00;2.70;;;;;;;;;;5034190;28;20748;-45
2021/08/27 01:09:18;;;;;;;7.10;3.00;;;;;;;;;;5034455;28;20551;-44
2021/08/27 01:11:46;;;;;;;6.93;3.07;;;;;;;;;;5034297;28;20416;-44
2021/08/27 01:14:23;;;;;;;4.33;2.63;;;;;;;;;;5034139;28;20428;-45
2021/08/27 01:16:56;;;;;;;3.17;2.87;;;;;;;;;;5034719;28;20872;-45
2021/08/27 01:19:41;;;;;;;5.53;2.50;;;;;;;;;;5034444;28;20492;-44
2021/08/27 01:22:27;;;;;;;9.07;2.60;;;;;;;;;;5034590;28;20440;-45
2021/08/27 01:24:53;;;;;;;6.60;2.70;;;;;;;;;;5034064;28;21034;-45
2021/08/27 01:27:20;;;;;;;6.60;3.03;;;;;;;;;;5034477;28;20415;-46
2021/08/27 01:30:05;;;;;;;5.77;2.50;;;;;;;;;;5034118;28;20463;-44
2021/08/27 01:32:50;;;;;;;7.07;2.90;;;;;;;;;;5034564;28;20828;-45
2021/08/27 01:35:16;;;;;;;7.50;3.90;;;;;;;;;;5034021;28;20408;-45
2021/08/27 01:37:45;;;;;;;8.37;2.33;;;;;;;;;;5034308;28;20403;-45
2021/08/27 01:40:11;;;;;;;6.93;2.90;;;;;;;;;;5034069;28;20439;-45
2021/08/27 01:42:38;;;;;;;6.90;2.90;;;;;;;;;;5034128;28;20816;-44
2021/08/27 01:45:04;;;;;;;7.10;3.50;;;;;;;;;;5033631;28;20471;-44
2021/08/27 01:47:32;;;;;;;3.87;3.07;;;;;;;;;;5034027;28;20399;-45
2021/08/27 01:49:58;;;;;;;4.90;2.80;;;;;;;;;;5033811;28;20488;-44
2021/08/27 01:52:26;;;;;;;3.87;2.80;;;;;;;;;;5034032;28;20755;-45
2021/08/27 01:54:52;;;;;;;8.83;3.20;;;;;;;;;;5033585;28;20778;-45
2021/08/27 01:57:20;;;;;;;6.33;3.00;;;;;;;;;;5033966;28;20467;-45
2021/08/27 01:59:46;;;;;;;7.50;3.53;;;;;;;;;;5033593;28;20432;-45
2021/08/27 02:02:13;;;;;;;8.80;2.90;;;;;;;;;;5033711;28;20435;-45
2021/08/27 02:04:40;;;;;;;6.07;3.37;;;;;;;;;;5033298;28;20411;-44
2021/08/27 02:07:06;;;;;;;5.13;2.93;;;;;;;;;;5033780;28;20431;-45
2021/08/27 02:09:34;;;;;;;3.73;3.00;;;;;;;;;;5033470;28;20546;-44
2021/08/27 02:12:00;;;;;;;3.90;3.00;;;;;;;;;;5032531;28;20505;-45
2021/08/27 02:14:26;;;;;;;7.93;3.53;;;;;;;;;;5033077;28;20491;-45
2021/08/27 02:16:52;;;;;;;7.13;3.20;;;;;;;;;;5033499;28;20407;-44
2021/08/27 02:19:18;;;;;;;9.40;4.07;;;;;;;;;;5033372;28;20422;-45
2021/08/27 02:21:51;;;;;;;12.70;3.33;;;;;;;;;;5033442;28;20934;-44
2021/08/27 02:24:22;;;;;;;9.20;3.47;;;;;;;;;;5033274;28;20429;-44
2021/08/27 02:26:51;;;;;;;7.13;3.67;;;;;;;;;;5033384;28;20374;-45
2021/08/27 02:29:18;;;;;;;4.20;3.07;;;;;;;;;;5032910;28;20455;-45
2021/08/27 02:31:48;;;;;;;11.53;3.73;;;;;;;;;;5033408;28;20887;-45
2021/08/27 02:34:16;;;;;;;11.77;4.20;;;;;;;;;;5032817;28;20426;-46
2021/08/27 02:36:43;;;;;;;13.80;3.57;;;;;;;;;;5033215;28;20440;-46
2021/08/27 02:39:10;;;;;;;8.40;3.87;;;;;;;;;;5032966;28;20407;-45
2021/08/27 02:41:36;;;;;;;7.43;3.00;;;;;;;;;;5032964;28;20505;-45
2021/08/27 02:44:02;;;;;;;5.83;3.90;;;;;;;;;;5032553;28;20435;-45
2021/08/27 02:46:28;;;;;;;10.53;3.67;;;;;;;;;;5033017;28;20755;-44
2021/08/27 02:48:54;;;;;;;4.30;3.47;;;;;;;;;;5032654;28;20456;-45
2021/08/27 02:51:22;;;;;;;16.13;3.93;;;;;;;;;;5032871;28;20491;-46
2021/08/27 02:53:51;;;;;;;4.77;3.77;;;;;;;;;;5032819;28;20749;-44
2021/08/27 02:56:21;;;;;;;22.57;3.90;;;;;;;;;;5032783;28;20408;-45
2021/08/27 02:58:49;;;;;;;4.37;3.50;;;;;;;;;;5032587;28;20897;-44
2021/08/27 03:01:29;;;;;;;6.73;3.77;;;;;;;;;;5032651;28;20411;-44
2021/08/27 03:04:06;;;;;;;5.90;3.20;;;;;;;;;;5032194;28;20410;-45
2021/08/27 03:06:37;;;;;;;7.77;3.60;;;;;;;;;;5032641;28;20399;-47
2021/08/27 03:09:08;;;;;;;13.90;2.93;;;;;;;;;;5032316;28;20509;-44
2021/08/27 03:11:38;;;;;;;4.03;3.13;;;;;;;;;;5032335;28;20493;-47
2021/08/27 03:14:15;;;;;;;7.40;3.97;;;;;;;;;;5032022;28;20404;-44
2021/08/27 03:16:43;;;;;;;6.97;3.80;;;;;;;;;;5032448;28;20419;-45
2021/08/27 03:19:15;;;;;;;7.30;3.60;;;;;;;;;;5032147;28;20433;-45
2021/08/27 03:21:49;;;;;;;6.40;3.07;;;;;;;;;;5032365;28;20490;-46
2021/08/27 03:24:33;;;;;;;10.33;4.37;;;;;;;;;;5031687;28;20401;-44
2021/08/27 03:27:04;;;;;;;9.10;3.53;;;;;;;;;;5032211;28;20397;-45
2021/08/27 03:29:31;;;;;;;9.73;3.70;;;;;;;;;;5053998;23;20503;-46
2021/08/27 03:31:57;;;;;;;9.70;4.00;;;;;;;;;;5032121;28;20789;-46
2021/08/27 03:34:24;;;;;;;3.70;3.40;;;;;;;;;;5031584;28;20412;-46
2021/08/27 03:36:51;;;;;;;6.03;3.60;;;;;;;;;;5031979;28;20402;-45
2021/08/27 03:39:17;;;;;;;6.90;4.10;;;;;;;;;;5031852;28;20419;-46
2021/08/27 03:41:43;;;;;;;8.00;3.67;;;;;;;;;;5031848;28;20764;-46
2021/08/27 03:44:10;;;;;;;5.77;3.47;;;;;;;;;;5031556;28;20436;-46
2021/08/27 03:46:37;;;;;;;10.80;3.40;;;;;;;;;;5031874;28;20393;-46
2021/08/27 03:49:03;;;;;;;7.57;4.80;;;;;;;;;;5031636;28;20988;-46
2021/08/27 03:51:30;;;;;;;11.63;4.20;;;;;;;;;;5031712;28;20403;-46
2021/08/27 03:53:56;;;;;;;10.77;4.07;;;;;;;;;;5031372;28;20419;-45
2021/08/27 03:56:25;;;;;;;5.20;3.77;;;;;;;;;;5031755;28;20481;-46
2021/08/27 03:58:52;;;;;;;7.87;4.00;;;;;;;;;;5031635;28;20935;-45
2021/08/27 04:01:18;;;;;;;4.30;3.60;;;;;;;;;;5031713;28;20424;-45
2021/08/27 04:03:44;;;;;;;13.40;4.60;;;;;;;;;;5031226;28;20416;-46
2021/08/27 04:06:10;;;;;;;4.87;3.37;;;;;;;;;;5031709;28;20415;-45
2021/08/27 04:08:38;;;;;;;3.90;3.60;;;;;;;;;;5031524;28;20460;-46
2021/08/27 04:11:05;;;;;;;8.10;4.23;;;;;;;;;;5031578;28;20405;-46
2021/08/27 04:13:31;;;;;;;8.73;3.63;;;;;;;;;;5031416;28;20858;-46
2021/08/27 04:15:57;;;;;;;14.63;4.33;;;;;;;;;;5031725;28;20419;-46
2021/08/27 04:18:23;;;;;;;8.93;4.20;;;;;;;;;;5031532;28;20418;-46
2021/08/27 04:20:49;;;;;;;4.00;3.30;;;;;;;;;;5031310;28;20896;-47
2021/08/27 04:23:15;;;;;;;4.83;3.87;;;;;;;;;;5031046;28;20978;-46
2021/08/27 04:25:41;;;;;;;11.60;4.53;;;;;;;;;;5031517;28;20427;-45
2021/08/27 04:28:07;;;;;;;7.33;4.10;;;;;;;;;;5031431;28;20438;-45
2021/08/27 04:30:33;;;;;;;5.57;4.03;;;;;;;;;;5031195;28;20811;-45
2021/08/27 04:33:00;;;;;;;8.30;4.17;;;;;;;;;;5031410;28;20396;-46
2021/08/27 04:35:25;;;;;;;6.43;3.57;;;;;;;;;;5032567;28;20422;-45
2021/08/27 04:37:53;;;;;;;5.90;3.70;;;;;;;;;;5035305;28;20395;-46
2021/08/27 04:40:19;;;;;;;10.23;4.10;;;;;;;;;;5035121;28;20564;-45
2021/08/27 04:42:45;;;;;;;9.50;4.17;;;;;;;;;;5035516;28;20403;-46
2021/08/27 04:45:11;;;;;;;5.90;5.03;;;;;;;;;;5034779;28;20417;-46
2021/08/27 04:47:38;;;;;;;7.80;4.30;;;;;;;;;;5035139;28;20403;-46
2021/08/27 04:50:04;;;;;;;8.07;4.10;;;;;;;;;;5034872;28;20469;-46
2021/08/27 04:52:30;;;;;;;6.73;4.20;;;;;;;;;;5034989;28;20443;-45
2021/08/27 04:54:56;;;;;;;10.40;4.77;;;;;;;;;;5034669;28;20821;-46
2021/08/27 04:57:23;;;;;;;11.83;3.97;;;;;;;;;;5034937;28;20395;-46
2021/08/27 04:59:49;;;;;;;5.53;3.83;;;;;;;;;;5034840;28;20801;-46
2021/08/27 05:02:15;;;;;;;11.33;5.17;;;;;;;;;;5034733;28;20877;-45
2021/08/27 05:04:41;;;;;;;9.63;4.33;;;;;;;;;;5034352;28;20435;-46
2021/08/27 05:07:07;;;;;;;9.83;4.60;;;;;;;;;;5034809;28;20498;-45
2021/08/27 05:09:33;;;;;;;6.87;3.90;;;;;;;;;;5034501;28;20462;-46
2021/08/27 05:11:59;;;;;;;8.77;4.70;;;;;;;;;;5034691;28;20409;-46
2021/08/27 05:14:25;;;;;;;10.87;4.03;;;;;;;;;;5034515;28;20422;-45
2021/08/27 05:16:51;;;;;;;10.20;4.20;;;;;;;;;;5034581;28;20411;-46
2021/08/27 05:19:17;;;;;;;9.60;4.17;;;;;;;;;;5034340;28;20430;-46
2021/08/27 05:21:43;;;;;;;11.90;4.90;;;;;;;;;;5034522;28;20994;-47
2021/08/27 05:24:09;;;;;;;10.03;5.00;;;;;;;;;;5034087;28;21060;-46
2021/08/27 05:26:35;;;;;;;10.10;4.33;;;;;;;;;;5034540;28;20553;-46
2021/08/27 05:29:01;;;;;;;12.63;4.43;;;;;;;;;;5033985;28;20467;-45
2021/08/27 05:31:27;;;;;;;6.33;3.80;;;;;;;;;;5034435;28;20497;-45
2021/08/27 05:33:53;;;;;;;6.80;4.03;;;;;;;;;;5034180;28;20486;-46
2021/08/27 05:36:19;;;;;;;13.43;4.33;;;;;;;;;;5034326;28;20437;-46
2021/08/27 05:38:45;;;;;;;11.43;4.60;;;;;;;;;;5033938;28;20458;-46
2021/08/27 05:41:11;;;;;;;10.90;4.60;;;;;;;;;;5034221;28;20820;-45
2021/08/27 05:43:37;;;;;;;12.40;5.03;;;;;;;;;;5033592;28;20409;-46
2021/08/27 05:46:05;;;;;;;14.00;5.10;;;;;;;;;;5034017;28;20496;-46
2021/08/27 05:48:31;;;;;;;13.03;4.20;;;;;;;;;;5033922;28;20457;-47
2021/08/27 05:50:57;;;;;;;13.60;4.93;;;;;;;;;;5033871;28;20449;-47
2021/08/27 05:53:23;;;;;;;10.93;4.50;;;;;;;;;;5033434;28;20454;-46
2021/08/27 05:55:49;;;;;;;8.17;4.50;;;;;;;;;;5033912;28;20872;-45
2021/08/27 05:58:15;;;;;;;10.20;3.90;;;;;;;;;;5032863;28;20490;-46
2021/08/27 06:00:41;;;;;;;7.33;3.83;;;;;;;;;;5032970;28;20420;-45
2021/08/27 06:03:07;;;;;;;11.37;4.57;;;;;;;;;;5033124;28;20432;-45
2021/08/27 06:05:33;;;;;;;4.30;3.90;;;;;;;;;;5032850;28;20411;-46
2021/08/27 06:07:59;;;;;;;8.17;4.00;;;;;;;;;;5032957;28;20401;-45
2021/08/27 06:10:25;;;;;;;7.00;3.87;;;;;;;;;;5032928;28;20470;-46
2021/08/27 06:12:51;;;;;;;8.10;4.47;;;;;;;;;;5015079;28;20419;-46
2021/08/27 06:15:17;;;;;;;5.73;4.23;;;;;;;;;;5032575;28;20490;-46
2021/08/27 06:17:43;;;;;;;10.47;4.83;;;;;;;;;;5033035;28;20408;-45
2021/08/27 06:20:10;;;;;;;10.07;4.77;;;;;;;;;;5032517;28;20809;-46
2021/08/27 06:22:36;;;;;;;4.80;4.40;;;;;;;;;;5033180;28;20445;-46
2021/08/27 06:25:02;;;;;;;4.17;3.77;;;;;;;;;;5032841;28;20937;-46
2021/08/27 06:27:28;;;;;;;5.53;3.93;;;;;;;;;;5033457;28;20443;-46
2021/08/27 06:29:54;;;;;;;7.00;4.43;;;;;;;;;;5037057;28;20498;-46
2021/08/27 06:32:20;;;;;;;9.33;4.63;;;;;;;;;;5029733;28;20380;-45
2021/08/27 06:34:47;;;;;;;10.13;3.47;;;;;;;;;;5038773;28;20426;-45
2021/08/27 06:37:14;;;;;;;5.77;4.43;;;;;;;;;;5034490;28;20414;-45
2021/08/27 06:39:40;;;;;;;7.53;4.30;;;;;;;;;;5032190;28;20422;-44
2021/08/27 06:42:06;;;;;;;9.67;4.30;;;;;;;;;;5031683;28;20405;-45
2021/08/27 06:44:32;;;;;;;5.70;4.87;;;;;;;;;;5032385;28;20410;-45
2021/08/27 06:46:58;;;;;;;5.83;5.10;;;;;;;;;;5033071;28;20493;-45
2021/08/27 06:49:24;;;;;;;10.83;5.40;;;;;;;;;;5032665;28;20458;-45
2021/08/27 06:51:50;;;;;;;6.30;4.87;;;;;;;;;;5032457;28;20766;-45
2021/08/27 06:54:16;;;;;;;9.10;5.97;;;;;;;;;;5032333;28;20445;-44
2021/08/27 06:56:42;;;;;;;14.80;7.17;;;;;;;;;;5032868;28;20402;-45
2021/08/27 06:59:08;;;;;;;10.83;5.60;;;;;;;;;;5031975;28;20422;-44
2021/08/27 07:01:34;;;;;;;9.10;5.23;;;;;;;;;;5032690;28;20407;-45
2021/08/27 07:04:00;;;;;;;5.50;4.47;;;;;;;;;;5032297;28;20537;-45
2021/08/27 07:06:26;;;;;;;8.10;5.10;;;;;;;;;;5032797;28;20897;-45
2021/08/27 07:08:52;;;;;;;7.03;5.23;;;;;;;;;;5032217;28;20462;-45
2021/08/27 07:11:18;;;;;;;5.33;4.87;;;;;;;;;;5032571;28;20490;-46
2021/08/27 07:13:45;;;;;;;9.47;5.43;;;;;;;;;;5031932;28;20394;-50
2021/08/27 07:16:11;;;;;;;8.20;5.67;;;;;;;;;;5032536;28;20409;-46
2021/08/27 07:18:39;;;;;;;7.43;4.37;;;;;;;;;;5032405;28;20500;-45
2021/08/27 07:21:06;;;;;;;5.60;4.03;;;;;;;;;;5032067;28;20402;-46
2021/08/27 07:23:32;;;;;;;7.43;4.13;;;;;;;;;;5032035;28;20472;-45
2021/08/27 07:25:58;;;;;;;6.13;4.70;;;;;;;;;;5032247;28;20463;-45
2021/08/27 07:28:24;;;;;;;10.27;5.70;;;;;;;;;;5032322;28;20411;-45
2021/08/27 07:30:50;;;;;;;7.90;5.80;;;;;;;;;;5031953;28;20406;-46
2021/08/27 07:33:16;;;;;;;12.37;6.00;;;;;;;;;;5032303;28;20441;-48
2021/08/27 07:35:41;;;;;;;9.97;5.87;;;;;;;;;;5031673;28;21076;-45
2021/08/27 07:38:07;;;;;;;7.90;6.03;;;;;;;;;;5032163;28;20473;-45
2021/08/27 07:40:33;;;;;;;10.60;5.60;;;;;;;;;;5031755;28;20759;-45
2021/08/27 07:43:01;;;;;;;6.50;5.80;;;;;;;;;;5032076;28;20456;-45
2021/08/27 07:45:27;;;;;;;15.90;6.57;;;;;;;;;;5031457;28;20388;-46
2021/08/27 07:47:53;;;;;;;9.10;6.20;;;;;;;;;;5032032;28;20414;-47
2021/08/27 07:50:19;;;;;;;8.23;6.27;;;;;;;;;;5031581;28;20458;-48
2021/08/27 07:52:45;;;;;;;12.20;7.87;;;;;;;;;;5031884;28;20459;-48
2021/08/27 07:55:11;;;;;;;12.17;7.30;;;;;;;;;;5031245;28;20822;-45
2021/08/27 07:57:44;;;;;;;13.93;7.10;;;;;;;;;;5031944;28;20594;-45
2021/08/27 08:00:10;;;;;;;9.40;7.17;;;;;;;;;;5031486;28;20473;-45
2021/08/27 08:02:36;;;;;;;11.03;6.40;;;;;;;;;;5031827;28;20391;-45
2021/08/27 08:05:03;;;;;;;7.37;6.30;;;;;;;;;;5031212;28;20894;-45
2021/08/27 08:07:29;;;;;;;11.17;5.00;;;;;;;;;;5031902;28;20415;-46
2021/08/27 08:09:55;;;;;;;7.43;5.27;;;;;;;;;;5031855;28;20486;-45
2021/08/27 08:12:21;;;;;;;8.63;5.40;;;;;;;;;;5035951;28;20734;-45
2021/08/27 08:14:46;;;;;;;12.90;6.03;;;;;;;;;;5035313;28;20448;-46
2021/08/27 08:17:12;;;;;;;8.80;5.33;;;;;;;;;;5035840;28;20373;-45
2021/08/27 08:19:38;;;;;;;10.10;4.27;;;;;;;;;;5035485;28;20420;-45
2021/08/27 08:22:05;;;;;;;6.53;4.73;;;;;;;;;;5035664;28;20378;-45
2021/08/27 08:24:31;;;;;;;8.67;5.20;;;;;;;;;;5035104;28;20382;-46
2021/08/27 08:26:56;;;;;;;9.80;5.90;;;;;;;;;;5035647;28;20382;-45
2021/08/27 08:29:22;;;;;;;8.60;6.00;;;;;;;;;;5035211;28;20551;-45
2021/08/27 08:31:50;;;;;;;26.87;15.63;;;;;;;;;;5035493;28;20395;-46
2021/08/27 08:34:16;;;;;;;9.17;5.50;;;;;;;;;;5035023;28;20407;-46
2021/08/27 08:36:42;;;;;;;9.43;5.40;;;;;;;;;;5039331;28;20387;-47
2021/08/27 08:42:21;;;;;;;10.13;6.15;;;;;;;;;;5661195;23;20815;-47
2021/08/27 08:44:47;;;;;;;8.83;5.93;;;;;;;;;;5044716;28;20197;-46
2021/08/27 08:47:16;;;;;;;8.60;5.77;;;;;;;;;;5054728;28;20950;-46
2021/08/27 08:49:42;;;;;;;7.43;5.60;;;;;;;;;;5055018;28;20440;-46
2021/08/27 08:52:08;;;;;;;11.90;5.77;;;;;;;;;;5054713;28;20437;-47
2021/08/27 08:54:35;;;;;;;10.83;5.53;;;;;;;;;;5054996;28;20373;-46
2021/08/27 08:57:01;;;;;;;6.23;5.10;;;;;;;;;;5073992;22;20469;-47
2021/08/27 08:59:27;;;;;;;8.77;4.90;;;;;;;;;;5034935;28;20386;-47
2021/08/27 09:01:53;;;;;;;9.27;5.43;;;;;;;;;;5034605;28;20385;-48
2021/08/27 09:04:19;;;;;;;7.43;4.80;;;;;;;;;;5034925;28;20384;-50
2021/08/27 09:06:45;;;;;;;9.40;4.43;;;;;;;;;;5034802;28;20422;-50
2021/08/27 09:09:11;;;;;;;5.83;4.10;;;;;;;;;;5035167;28;20426;-50
2021/08/27 09:11:37;;;;;;;5.87;4.00;;;;;;;;;;5034228;28;20382;-50
2021/08/27 09:14:05;;;;;;;6.60;3.80;;;;;;;;;;5035216;28;20470;-49
2021/08/27 09:16:32;;;;;;;5.37;3.63;;;;;;;;;;5024646;28;20432;-49
2021/08/27 09:18:59;;;;;;;5.27;2.97;;;;;;;;;;5014649;28;20377;-50
2021/08/27 09:21:26;;;;;;;7.50;3.23;;;;;;;;;;5014055;28;20412;-50
2021/08/27 09:23:51;;;;;;;3.40;3.00;;;;;;;;;;5014631;28;20379;-50
2021/08/27 09:26:33;;;;;;;5.70;3.40;;;;;;;;;;5014631;28;20415;-50
2021/08/27 09:28:59;;;;;;;4.20;3.13;;;;;;;;;;5014383;28;20436;-47
2021/08/27 09:31:51;;;;;;;5.43;3.40;;;;;;;;;;5014261;28;20410;-50
2021/08/27 09:34:18;;;;;;;9.87;4.03;;;;;;;;;;5011052;28;20920;-49
2021/08/27 09:36:54;;;;;;;10.87;4.77;;;;;;;;;;5014419;28;20398;-50
2021/08/27 09:39:30;;;;;;;6.20;3.70;;;;;;;;;;5014126;28;20378;-50
2021/08/27 09:41:57;;;;;;;7.23;3.37;;;;;;;;;;5014108;28;20375;-50
2021/08/27 09:44:23;;;;;;;6.07;3.70;;;;;;;;;;5014531;28;20380;-50
2021/08/27 09:46:49;;;;;;;4.03;3.30;;;;;;;;;;5014303;28;20907;-49
2021/08/27 09:49:32;;;;;;;4.87;4.20;;;;;;;;;;5014550;28;20459;-50
2021/08/27 09:51:58;;;;;;;5.27;3.40;;;;;;;;;;5013699;28;20396;-50
2021/08/27 09:54:31;;;;;;;6.10;3.40;;;;;;;;;;5026106;28;20390;-50
2021/08/27 09:57:01;;;;;;;8.20;3.77;;;;;;;;;;5034731;28;20452;-50
2021/08/27 09:59:36;;;;;;;8.03;3.20;;;;;;;;;;5033662;28;20389;-49
2021/08/27 10:02:03;;;;;;;5.27;3.17;;;;;;;;;;5033632;28;20404;-48
2021/08/27 10:04:29;;;;;;;6.30;3.30;;;;;;;;;;5033802;28;20406;-49
2021/08/27 10:06:56;;;;;;;5.43;3.30;;;;;;;;;;5033689;28;20447;-50
2021/08/27 10:09:22;;;;;;;8.20;3.80;;;;;;;;;;5033583;28;20587;-50
2021/08/27 10:11:49;;;;;;;4.83;3.30;;;;;;;;;;5033377;28;20783;-49
2021/08/27 10:14:15;;;;;;;4.60;2.80;;;;;;;;;;5041470;28;20414;-50
2021/08/27 10:16:43;;;;;;;4.50;2.77;;;;;;;;;;5033273;28;20430;-48
2021/08/27 10:19:09;;;;;;;4.87;2.80;;;;;;;;;;5033583;28;20406;-48
2021/08/27 10:21:35;;;;;;;6.13;2.63;;;;;;;;;;5033059;28;20908;-50
2021/08/27 10:24:01;;;;;;;7.70;2.40;;;;;;;;;;5033356;28;20410;-50
2021/08/27 10:26:27;;;;;;;6.00;2.27;;;;;;;;;;5031984;28;20424;-48
2021/08/27 10:28:54;;;;;;;3.97;2.40;;;;;;;;;;5032424;28;20476;-47
2021/08/27 10:31:39;;;;;;;3.40;1.97;;;;;;;;;;5032978;28;20449;-49
2021/08/27 10:34:05;;;;;;;3.50;2.40;;;;;;;;;;5032532;28;20422;-51
2021/08/27 10:36:31;;;;;;;4.40;2.37;;;;;;;;;;5033124;28;20424;-49
2021/08/27 10:38:58;;;;;;;5.00;2.37;;;;;;;;;;5033016;28;20907;-49
2021/08/27 10:41:44;;;;;;;2.67;1.80;;;;;;;;;;5032854;28;20403;-48
2021/08/27 10:44:11;;;;;;;4.90;1.80;;;;;;;;;;5032924;28;20491;-49
2021/08/27 10:46:46;;;;;;;5.53;2.17;;;;;;;;;;5032982;28;20434;-51
2021/08/27 10:49:14;;;;;;;8.10;1.93;;;;;;;;;;5032935;28;20449;-48
2021/08/27 10:51:41;;;;;;;1.77;1.50;;;;;;;;;;5032800;28;20436;-50
2021/08/27 10:54:07;;;;;;;10.77;1.63;;;;;;;;;;5032741;28;20762;-50
2021/08/27 10:56:49;;;;;;;3.43;2.00;;;;;;;;;;5032644;28;20850;-50
2021/08/27 10:59:15;;;;;;;6.17;2.03;;;;;;;;;;5033055;28;20402;-50
2021/08/27 11:01:45;;;;;;;6.83;1.90;;;;;;;;;;5032533;28;20414;-50
2021/08/27 11:04:12;;;;;;;4.47;1.50;;;;;;;;;;5032743;28;20951;-51
2021/08/27 11:06:51;;;;;;;1.80;1.70;;;;;;;;;;5032610;28;20471;-48
2021/08/27 11:09:19;;;;;;;3.50;1.97;;;;;;;;;;5032473;28;20465;-51
2021/08/27 11:11:45;;;;;;;4.63;2.00;;;;;;;;;;5032173;28;20480;-49
2021/08/27 11:14:15;;;;;;;5.77;2.03;;;;;;;;;;5032472;28;20402;-50
2021/08/27 11:16:41;;;;;;;2.93;2.40;;;;;;;;;;5032468;28;20921;-51
2021/08/27 11:19:26;;;;;;;2.50;1.80;;;;;;;;;;5032260;28;20440;-50
2021/08/27 11:21:58;;;;;;;4.13;1.67;;;;;;;;;;5032347;28;20525;-51
2021/08/27 11:24:26;;;;;;;2.13;1.37;;;;;;;;;;5032308;28;20458;-50
2021/08/27 11:26:58;;;;;;;8.23;1.90;;;;;;;;;;5032355;28;20463;-50
2021/08/27 11:29:28;;;;;;;6.10;1.90;;;;;;;;;;5032122;28;20458;-51
2021/08/27 11:31:55;;;;;;;3.50;1.63;;;;;;;;;;5031977;28;20402;-50
2021/08/27 11:34:47;;;;;;;2.17;1.83;;;;;;;;;;5032250;28;20460;-49
2021/08/27 11:37:14;;;;;;;2.13;1.53;;;;;;;;;;5032179;28;20510;-50
2021/08/27 11:39:40;;;;;;;2.90;1.80;;;;;;;;;;5022907;28;20422;-48
2021/08/27 11:42:07;;;;;;;4.10;2.10;;;;;;;;;;5012152;28;20493;-47
2021/08/27 11:44:41;;;;;;;3.13;1.50;;;;;;;;;;5012292;28;20410;-50
2021/08/27 11:47:08;;;;;;;3.53;2.03;;;;;;;;;;5012211;28;20563;-50
2021/08/27 11:49:38;;;;;;;4.53;1.97;;;;;;;;;;5012374;28;20453;-50
2021/08/27 11:52:11;;;;;;;2.90;1.63;;;;;;;;;;5011824;28;20403;-51
2021/08/27 11:54:38;;;;;;;3.40;1.50;;;;;;;;;;5012280;28;20400;-50
2021/08/27 11:57:04;;;;;;;10.43;1.93;;;;;;;;;;5012055;28;20503;-50
2021/08/27 11:59:30;;;;;;;2.93;1.27;;;;;;;;;;5012125;28;20794;-51
2021/08/27 12:01:56;;;;;;;3.80;1.50;;;;;;;;;;5011779;28;20414;-49
2021/08/27 12:04:36;;;;;;;6.87;1.30;;;;;;;;;;5012172;28;20944;-50
2021/08/27 12:07:09;;;;;;;5.53;1.87;;;;;;;;;;5011935;28;20949;-48
2021/08/27 12:09:35;;;;;;;2.70;1.50;;;;;;;;;;5012094;28;20455;-50
2021/08/27 12:12:01;;;;;;;4.17;1.70;;;;;;;;;;5011703;28;20391;-50
2021/08/27 12:14:46;;;;;;;4.27;1.60;;;;;;;;;;5012096;28;20875;-51
2021/08/27 12:17:17;;;;;;;3.73;1.60;;;;;;;;;;5011885;28;20419;-49
2021/08/27 12:19:43;;;;;;;7.30;1.80;;;;;;;;;;5011339;28;20407;-50
2021/08/27 12:22:11;;;;;;;5.17;2.20;;;;;;;;;;5011613;28;20409;-49
2021/08/27 12:24:38;;;;;;;4.77;1.83;;;;;;;;;;5012459;28;20404;-46
2021/08/27 12:27:04;;;;;;;3.23;1.90;;;;;;;;;;5011942;28;20427;-46
2021/08/27 12:29:30;;;;;;;3.07;1.80;;;;;;;;;;5011397;28;20453;-46
2021/08/27 12:31:56;;;;;;;6.60;2.60;;;;;;;;;;5011409;28;20884;-46
2021/08/27 12:34:22;;;;;;;4.73;1.97;;;;;;;;;;5011747;28;20473;-48
2021/08/27 12:36:49;;;;;;;3.40;1.90;;;;;;;;;;5011673;28;20422;-48
2021/08/27 12:39:15;;;;;;;5.30;2.03;;;;;;;;;;5011789;28;20407;-46
2021/08/27 12:41:41;;;;;;;6.00;1.80;;;;;;;;;;5011540;28;20407;-46
2021/08/27 12:44:12;;;;;;;1.93;1.57;;;;;;;;;;5011828;28;20477;-47
2021/08/27 12:46:39;;;;;;;2.90;1.60;;;;;;;;;;5011649;28;20916;-46
2021/08/27 12:49:16;;;;;;;1.93;1.60;;;;;;;;;;5030261;28;20510;-47
2021/08/27 12:51:42;;;;;;;2.50;1.47;;;;;;;;;;5050754;28;20405;-46
2021/08/27 12:54:08;;;;;;;4.50;1.70;;;;;;;;;;5051405;28;20443;-47
2021/08/27 12:56:35;;;;;;;4.83;2.23;;;;;;;;;;5052163;28;20966;-45
2021/08/27 12:59:14;;;;;;;2.80;1.73;;;;;;;;;;5053189;28;20922;-48
2021/08/27 13:01:40;;;;;;;2.40;1.87;;;;;;;;;;5052684;28;20420;-46
2021/08/27 13:04:06;;;;;;;2.37;2.00;;;;;;;;;;5052985;28;20401;-48
2021/08/27 13:06:32;;;;;;;4.73;1.50;;;;;;;;;;5052879;28;20899;-48
2021/08/27 13:08:59;;;;;;;5.47;1.57;;;;;;;;;;5027193;28;20450;-46
2021/08/27 13:11:26;;;;;;;7.27;2.37;;;;;;;;;;5012783;28;20955;-48
2021/08/27 13:13:53;;;;;;;4.33;1.73;;;;;;;;;;5014793;28;20409;-46
2021/08/27 13:16:20;;;;;;;6.20;1.87;;;;;;;;;;5014973;28;20823;-46
2021/08/27 13:18:47;;;;;;;3.20;2.07;;;;;;;;;;5014673;28;20453;-46
2021/08/27 13:21:14;;;;;;;3.70;1.70;;;;;;;;;;5013878;28;20452;-47
2021/08/27 13:23:41;;;;;;;5.03;1.60;;;;;;;;;;5014665;28;20402;-46
2021/08/27 13:26:10;;;;;;;2.47;1.70;;;;;;;;;;5014349;28;20430;-47
2021/08/27 13:28:37;;;;;;;2.97;2.43;;;;;;;;;;5014534;28;20436;-46
2021/08/27 13:31:04;;;;;;;4.30;1.87;;;;;;;;;;5014027;28;20407;-49
2021/08/27 13:33:30;;;;;;;5.73;1.53;;;;;;;;;;5014634;28;20405;-48
2021/08/27 13:35:56;;;;;;;5.10;1.87;;;;;;;;;;5014573;28;20450;-48
2021/08/27 13:38:22;;;;;;;2.50;1.43;;;;;;;;;;5013840;28;20466;-48
2021/08/27 13:40:48;;;;;;;5.97;1.70;;;;;;;;;;5014260;28;20919;-48
2021/08/27 13:43:14;;;;;;;3.30;1.60;;;;;;;;;;5014522;28;20438;-46
2021/08/27 13:45:40;;;;;;;1.90;1.70;;;;;;;;;;5014341;28;20427;-46
2021/08/27 13:48:06;;;;;;;3.53;1.77;;;;;;;;;;5014438;28;20461;-46
2021/08/27 13:50:32;;;;;;;4.90;1.77;;;;;;;;;;5014097;28;20459;-46
2021/08/27 13:52:58;;;;;;;6.63;2.30;;;;;;;;;;5014149;28;20403;-46
2021/08/27 13:55:24;;;;;;;3.93;1.80;;;;;;;;;;5013676;28;20903;-47
2021/08/27 13:57:50;;;;;;;2.30;1.60;;;;;;;;;;5013428;28;20419;-46
2021/08/27 14:00:17;;;;;;;2.47;2.10;;;;;;;;;;5013792;28;20960;-46
2021/08/27 14:02:44;;;;;;;3.80;2.37;;;;;;;;;;5013781;28;20429;-47
2021/08/27 14:05:11;;;;;;;1.83;1.70;;;;;;;;;;5013633;28;20421;-49
2021/08/27 14:07:37;;;;;;;3.40;1.93;;;;;;;;;;5012392;28;20415;-46
2021/08/27 14:10:05;;;;;;;6.43;2.40;;;;;;;;;;5013260;28;20536;-46
2021/08/27 14:12:31;;;;;;;6.00;2.00;;;;;;;;;;5013542;28;20899;-46
2021/08/27 14:14:57;;;;;;;3.43;1.97;;;;;;;;;;5013859;28;20418;-48
2021/08/27 14:17:23;;;;;;;3.50;1.90;;;;;;;;;;5013667;28;20809;-48
2021/08/27 14:19:49;;;;;;;4.50;1.97;;;;;;;;;;5013667;28;20415;-49
2021/08/27 14:22:15;;;;;;;2.80;1.80;;;;;;;;;;5013483;28;20422;-48
2021/08/27 14:24:41;;;;;;;3.53;1.90;;;;;;;;;;5013516;28;20415;-47
2021/08/27 14:27:07;;;;;;;5.30;1.47;;;;;;;;;;5013656;28;20474;-47
2021/08/27 14:29:33;;;;;;;2.90;1.83;;;;;;;;;;5013517;28;20481;-47
2021/08/27 14:32:02;;;;;;;4.50;2.10;;;;;;;;;;5013348;28;20404;-46
2021/08/27 14:34:28;;;;;;;2.90;1.90;;;;;;;;;;5013413;28;20775;-46
2021/08/27 14:36:54;;;;;;;6.10;2.10;;;;;;;;;;5013386;28;20430;-46
2021/08/27 14:39:19;;;;;;;4.50;2.07;;;;;;;;;;5013323;28;20413;-47
2021/08/27 14:41:45;;;;;;;3.90;1.80;;;;;;;;;;5012190;28;20411;-46
2021/08/27 14:44:12;;;;;;;5.13;1.73;;;;;;;;;;5013477;28;20831;-46
2021/08/27 14:46:39;;;;;;;2.00;1.73;;;;;;;;;;5012823;28;20433;-45